sensor_id;sensor_type;location;lat;lon;timestamp;temperature;humidity
4725;DHT22;2376;53.544;10.226;2022-11-20T00:01:09;5.60;99.90
4725;DHT22;2376;53.544;10.226;2022-11-20T00:03:36;5.50;99.90
4725;DHT22;2376;53.544;10.226;2022-11-20T00:06:05;5.60;99.90
4725;DHT22;2376;53.544;10.226;2022-11-20T00:08:32;5.60;99.90
4725;DHT22;2376;53.544;10.226;2022-11-20T00:11:02;5.60;99.90
4725;DHT22;2376;53.544;10.226;2022-11-20T00:13:29;5.60;99.90
4725;DHT22;2376;53.544;10.226;2022-11-20T00:16:00;5.60;99.90
4725;DHT22;2376;53.544;10.226;2022-11-20T00:18:29;5.60;99.90
4725;DHT22;2376;53.544;10.226;2022-11-20T00:21:01;5.60;99.90
4725;DHT22;2376;53.544;10.226;2022-11-20T00:23:27;5.70;99.90
4725;DHT22;2376;53.544;10.226;2022-11-20T00:25:54;5.60;99.90
4725;DHT22;2376;53.544;10.226;2022-11-20T00:28:21;5.70;99.90
4725;DHT22;2376;53.544;10.226;2022-11-20T00:30:48;5.60;99.90
4725;DHT22;2376;53.544;10.226;2022-11-20T00:33:14;5.60;99.90
4725;DHT22;2376;53.544;10.226;2022-11-20T00:35:42;5.70;99.90
4725;DHT22;2376;53.544;10.226;2022-11-20T00:38:09;5.70;99.90
4725;DHT22;2376;53.544;10.226;2022-11-20T00:40:36;5.70;99.90
4725;DHT22;2376;53.544;10.226;2022-11-20T00:43:03;5.70;99.90
4725;DHT22;2376;53.544;10.226;2022-11-20T00:45:29;5.70;99.90
4725;DHT22;2376;53.544;10.226;2022-11-20T00:47:56;5.70;99.90
4725;DHT22;2376;53.544;10.226;2022-11-20T00:50:23;5.60;99.90
4725;DHT22;2376;53.544;10.226;2022-11-20T00:52:51;5.60;99.90
4725;DHT22;2376;53.544;10.226;2022-11-20T00:55:17;5.60;99.90
4725;DHT22;2376;53.544;10.226;2022-11-20T00:57:44;5.70;99.90
4725;DHT22;2376;53.544;10.226;2022-11-20T01:00:11;5.70;99.90
4725;DHT22;2376;53.544;10.226;2022-11-20T01:02:38;5.70;99.90
4725;DHT22;2376;53.544;10.226;2022-11-20T01:05:05;5.70;99.90
4725;DHT22;2376;53.544;10.226;2022-11-20T01:07:32;5.70;99.90
4725;DHT22;2376;53.544;10.226;2022-11-20T01:10:00;5.70;99.90
4725;DHT22;2376;53.544;10.226;2022-11-20T01:12:27;5.70;99.90
4725;DHT22;2376;53.544;10.226;2022-11-20T01:14:54;5.70;99.90
4725;DHT22;2376;53.544;10.226;2022-11-20T01:17:20;5.60;99.90
4725;DHT22;2376;53.544;10.226;2022-11-20T01:19:48;5.60;99.90
4725;DHT22;2376;53.544;10.226;2022-11-20T01:22:15;5.60;99.90
4725;DHT22;2376;53.544;10.226;2022-11-20T01:24:42;5.70;99.90
4725;DHT22;2376;53.544;10.226;2022-11-20T01:27:10;5.60;99.90
4725;DHT22;2376;53.544;10.226;2022-11-20T01:29:37;5.50;99.90
4725;DHT22;2376;53.544;10.226;2022-11-20T01:32:04;5.50;99.90
4725;DHT22;2376;53.544;10.226;2022-11-20T01:34:30;5.50;99.90
4725;DHT22;2376;53.544;10.226;2022-11-20T01:36:57;5.50;99.90
4725;DHT22;2376;53.544;10.226;2022-11-20T01:39:25;5.60;99.90
4725;DHT22;2376;53.544;10.226;2022-11-20T01:41:53;5.60;99.90
4725;DHT22;2376;53.544;10.226;2022-11-20T01:44:50;5.60;99.90
4725;DHT22;2376;53.544;10.226;2022-11-20T01:47:21;5.50;99.90
4725;DHT22;2376;53.544;10.226;2022-11-20T01:49:52;5.50;99.90
4725;DHT22;2376;53.544;10.226;2022-11-20T01:52:21;5.50;99.90
4725;DHT22;2376;53.544;10.226;2022-11-20T01:54:53;5.50;99.90
4725;DHT22;2376;53.544;10.226;2022-11-20T01:57:23;5.50;99.90
4725;DHT22;2376;53.544;10.226;2022-11-20T01:59:57;5.60;99.90
4725;DHT22;2376;53.544;10.226;2022-11-20T02:02:25;5.50;99.90
4725;DHT22;2376;53.544;10.226;2022-11-20T02:04:54;5.40;99.90
4725;DHT22;2376;53.544;10.226;2022-11-20T02:07:23;5.40;99.90
4725;DHT22;2376;53.544;10.226;2022-11-20T02:09:51;5.50;99.90
4725;DHT22;2376;53.544;10.226;2022-11-20T02:12:17;5.50;99.90
4725;DHT22;2376;53.544;10.226;2022-11-20T02:15:00;5.50;99.90
4725;DHT22;2376;53.544;10.226;2022-11-20T02:17:27;5.50;99.90
4725;DHT22;2376;53.544;10.226;2022-11-20T02:19:54;5.60;99.90
4725;DHT22;2376;53.544;10.226;2022-11-20T02:22:24;5.60;99.90
4725;DHT22;2376;53.544;10.226;2022-11-20T02:24:56;5.50;99.90
4725;DHT22;2376;53.544;10.226;2022-11-20T02:27:25;5.50;99.90
4725;DHT22;2376;53.544;10.226;2022-11-20T02:29:55;5.60;99.90
4725;DHT22;2376;53.544;10.226;2022-11-20T02:32:26;5.60;99.90
4725;DHT22;2376;53.544;10.226;2022-11-20T02:34:53;5.50;99.90
4725;DHT22;2376;53.544;10.226;2022-11-20T02:37:21;5.60;99.90
4725;DHT22;2376;53.544;10.226;2022-11-20T02:39:50;5.60;99.90
4725;DHT22;2376;53.544;10.226;2022-11-20T02:42:18;5.50;99.90
4725;DHT22;2376;53.544;10.226;2022-11-20T02:44:45;5.50;99.90
4725;DHT22;2376;53.544;10.226;2022-11-20T02:47:12;5.50;99.90
4725;DHT22;2376;53.544;10.226;2022-11-20T02:49:38;5.50;99.90
4725;DHT22;2376;53.544;10.226;2022-11-20T02:52:05;5.50;99.90
4725;DHT22;2376;53.544;10.226;2022-11-20T02:54:32;5.50;99.90
4725;DHT22;2376;53.544;10.226;2022-11-20T02:56:58;5.50;99.90
4725;DHT22;2376;53.544;10.226;2022-11-20T02:59:26;5.50;99.90
4725;DHT22;2376;53.544;10.226;2022-11-20T03:01:53;5.50;99.90
4725;DHT22;2376;53.544;10.226;2022-11-20T03:04:20;5.50;99.90
4725;DHT22;2376;53.544;10.226;2022-11-20T03:06:47;5.50;99.90
4725;DHT22;2376;53.544;10.226;2022-11-20T03:09:13;5.50;99.90
4725;DHT22;2376;53.544;10.226;2022-11-20T03:11:40;5.50;99.90
4725;DHT22;2376;53.544;10.226;2022-11-20T03:14:07;5.50;99.90
4725;DHT22;2376;53.544;10.226;2022-11-20T03:16:35;5.50;99.90
4725;DHT22;2376;53.544;10.226;2022-11-20T03:19:02;5.50;99.90
4725;DHT22;2376;53.544;10.226;2022-11-20T03:21:28;5.60;99.90
4725;DHT22;2376;53.544;10.226;2022-11-20T03:23:55;5.60;99.90
4725;DHT22;2376;53.544;10.226;2022-11-20T03:26:24;5.60;99.90
4725;DHT22;2376;53.544;10.226;2022-11-20T03:28:53;5.60;99.90
4725;DHT22;2376;53.544;10.226;2022-11-20T03:31:23;5.60;99.90
4725;DHT22;2376;53.544;10.226;2022-11-20T03:33:51;5.60;99.90
4725;DHT22;2376;53.544;10.226;2022-11-20T03:36:19;5.60;99.90
4725;DHT22;2376;53.544;10.226;2022-11-20T03:38:47;5.60;99.90
4725;DHT22;2376;53.544;10.226;2022-11-20T03:41:15;5.60;99.90
4725;DHT22;2376;53.544;10.226;2022-11-20T03:43:46;5.60;99.90
4725;DHT22;2376;53.544;10.226;2022-11-20T03:46:12;5.60;99.90
4725;DHT22;2376;53.544;10.226;2022-11-20T03:48:39;5.60;99.90
4725;DHT22;2376;53.544;10.226;2022-11-20T03:51:09;5.60;99.90
4725;DHT22;2376;53.544;10.226;2022-11-20T03:53:36;5.60;99.90
4725;DHT22;2376;53.544;10.226;2022-11-20T03:56:03;5.60;99.90
4725;DHT22;2376;53.544;10.226;2022-11-20T03:58:30;5.50;99.90
4725;DHT22;2376;53.544;10.226;2022-11-20T04:00:57;5.50;99.90
4725;DHT22;2376;53.544;10.226;2022-11-20T04:03:24;5.50;99.90
4725;DHT22;2376;53.544;10.226;2022-11-20T04:05:51;5.50;99.90
4725;DHT22;2376;53.544;10.226;2022-11-20T04:08:19;5.50;99.90
4725;DHT22;2376;53.544;10.226;2022-11-20T04:10:46;5.50;99.90
4725;DHT22;2376;53.544;10.226;2022-11-20T04:13:13;5.50;99.90
4725;DHT22;2376;53.544;10.226;2022-11-20T04:15:39;5.50;99.90
4725;DHT22;2376;53.544;10.226;2022-11-20T04:18:06;5.50;99.90
4725;DHT22;2376;53.544;10.226;2022-11-20T04:20:32;5.50;99.90
4725;DHT22;2376;53.544;10.226;2022-11-20T04:23:00;5.50;99.90
4725;DHT22;2376;53.544;10.226;2022-11-20T04:25:28;5.50;99.90
4725;DHT22;2376;53.544;10.226;2022-11-20T04:27:55;5.50;99.90
4725;DHT22;2376;53.544;10.226;2022-11-20T04:30:21;5.50;99.90
4725;DHT22;2376;53.544;10.226;2022-11-20T04:32:48;5.50;99.90
4725;DHT22;2376;53.544;10.226;2022-11-20T04:35:15;5.50;99.90
4725;DHT22;2376;53.544;10.226;2022-11-20T04:37:41;5.50;99.90
4725;DHT22;2376;53.544;10.226;2022-11-20T04:40:09;5.50;99.90
4725;DHT22;2376;53.544;10.226;2022-11-20T04:42:37;5.50;99.90
4725;DHT22;2376;53.544;10.226;2022-11-20T04:45:04;5.50;99.90
4725;DHT22;2376;53.544;10.226;2022-11-20T04:47:31;5.50;99.90
4725;DHT22;2376;53.544;10.226;2022-11-20T04:49:58;5.50;99.90
4725;DHT22;2376;53.544;10.226;2022-11-20T04:52:24;5.60;99.90
4725;DHT22;2376;53.544;10.226;2022-11-20T04:54:51;5.50;99.90
4725;DHT22;2376;53.544;10.226;2022-11-20T04:57:19;5.50;99.90
4725;DHT22;2376;53.544;10.226;2022-11-20T04:59:47;5.50;99.90
4725;DHT22;2376;53.544;10.226;2022-11-20T05:02:14;5.50;99.90
4725;DHT22;2376;53.544;10.226;2022-11-20T05:04:40;5.50;99.90
4725;DHT22;2376;53.544;10.226;2022-11-20T05:07:07;5.50;99.90
4725;DHT22;2376;53.544;10.226;2022-11-20T05:09:34;5.50;99.90
4725;DHT22;2376;53.544;10.226;2022-11-20T05:12:00;5.50;99.90
4725;DHT22;2376;53.544;10.226;2022-11-20T05:14:27;5.50;99.90
4725;DHT22;2376;53.544;10.226;2022-11-20T05:16:55;5.40;99.90
4725;DHT22;2376;53.544;10.226;2022-11-20T05:19:22;5.50;99.90
4725;DHT22;2376;53.544;10.226;2022-11-20T05:21:48;5.50;99.90
4725;DHT22;2376;53.544;10.226;2022-11-20T05:24:15;5.50;99.90
4725;DHT22;2376;53.544;10.226;2022-11-20T05:26:42;5.50;99.90
4725;DHT22;2376;53.544;10.226;2022-11-20T05:29:10;5.50;99.90
4725;DHT22;2376;53.544;10.226;2022-11-20T05:31:38;5.50;99.90
4725;DHT22;2376;53.544;10.226;2022-11-20T05:34:06;5.50;99.90
4725;DHT22;2376;53.544;10.226;2022-11-20T05:36:33;5.50;99.90
4725;DHT22;2376;53.544;10.226;2022-11-20T05:39:00;5.50;99.90
4725;DHT22;2376;53.544;10.226;2022-11-20T05:41:26;5.50;99.90
4725;DHT22;2376;53.544;10.226;2022-11-20T05:43:53;5.40;99.90
4725;DHT22;2376;53.544;10.226;2022-11-20T05:46:21;5.40;99.90
4725;DHT22;2376;53.544;10.226;2022-11-20T05:48:47;5.40;99.90
4725;DHT22;2376;53.544;10.226;2022-11-20T05:51:17;5.40;99.90
4725;DHT22;2376;53.544;10.226;2022-11-20T05:53:45;5.40;99.90
4725;DHT22;2376;53.544;10.226;2022-11-20T05:56:13;5.40;99.90
4725;DHT22;2376;53.544;10.226;2022-11-20T05:58:40;5.40;99.90
4725;DHT22;2376;53.544;10.226;2022-11-20T06:01:08;5.40;99.90
4725;DHT22;2376;53.544;10.226;2022-11-20T06:03:35;5.40;99.90
4725;DHT22;2376;53.544;10.226;2022-11-20T06:06:03;5.30;99.90
4725;DHT22;2376;53.544;10.226;2022-11-20T06:08:32;5.30;99.90
4725;DHT22;2376;53.544;10.226;2022-11-20T06:10:58;5.30;99.90
4725;DHT22;2376;53.544;10.226;2022-11-20T06:13:28;5.30;99.90
4725;DHT22;2376;53.544;10.226;2022-11-20T06:15:55;5.30;99.90
4725;DHT22;2376;53.544;10.226;2022-11-20T06:18:22;5.40;99.90
4725;DHT22;2376;53.544;10.226;2022-11-20T06:20:48;5.40;99.90
4725;DHT22;2376;53.544;10.226;2022-11-20T06:23:15;5.30;99.90
4725;DHT22;2376;53.544;10.226;2022-11-20T06:25:43;5.30;99.90
4725;DHT22;2376;53.544;10.226;2022-11-20T06:28:10;5.20;99.90
4725;DHT22;2376;53.544;10.226;2022-11-20T06:30:36;5.20;99.90
4725;DHT22;2376;53.544;10.226;2022-11-20T06:33:03;5.30;99.90
4725;DHT22;2376;53.544;10.226;2022-11-20T06:35:30;5.30;99.90
4725;DHT22;2376;53.544;10.226;2022-11-20T06:37:57;5.40;99.90
4725;DHT22;2376;53.544;10.226;2022-11-20T06:40:23;5.30;99.90
4725;DHT22;2376;53.544;10.226;2022-11-20T06:42:53;5.40;99.90
4725;DHT22;2376;53.544;10.226;2022-11-20T06:45:20;5.40;99.90
4725;DHT22;2376;53.544;10.226;2022-11-20T06:47:47;5.50;99.90
4725;DHT22;2376;53.544;10.226;2022-11-20T06:50:14;5.50;99.90
4725;DHT22;2376;53.544;10.226;2022-11-20T06:52:40;5.50;99.90
4725;DHT22;2376;53.544;10.226;2022-11-20T06:55:07;5.50;99.90
4725;DHT22;2376;53.544;10.226;2022-11-20T06:57:34;5.50;99.90
4725;DHT22;2376;53.544;10.226;2022-11-20T07:00:03;5.50;99.90
4725;DHT22;2376;53.544;10.226;2022-11-20T07:02:29;5.50;99.90
4725;DHT22;2376;53.544;10.226;2022-11-20T07:04:56;5.50;99.90
4725;DHT22;2376;53.544;10.226;2022-11-20T07:07:23;5.50;99.90
4725;DHT22;2376;53.544;10.226;2022-11-20T07:09:49;5.40;99.90
4725;DHT22;2376;53.544;10.226;2022-11-20T07:12:16;5.50;99.90
4725;DHT22;2376;53.544;10.226;2022-11-20T07:14:43;5.50;99.90
4725;DHT22;2376;53.544;10.226;2022-11-20T07:17:11;5.40;99.90
4725;DHT22;2376;53.544;10.226;2022-11-20T07:19:38;5.40;99.90
4725;DHT22;2376;53.544;10.226;2022-11-20T07:22:04;5.40;99.90
4725;DHT22;2376;53.544;10.226;2022-11-20T07:24:31;5.40;99.90
4725;DHT22;2376;53.544;10.226;2022-11-20T07:26:58;5.40;99.90
4725;DHT22;2376;53.544;10.226;2022-11-20T07:29:24;5.40;99.90
4725;DHT22;2376;53.544;10.226;2022-11-20T07:31:51;5.30;99.90
4725;DHT22;2376;53.544;10.226;2022-11-20T07:34:19;5.20;99.90
4725;DHT22;2376;53.544;10.226;2022-11-20T07:36:46;5.30;99.90
4725;DHT22;2376;53.544;10.226;2022-11-20T07:39:12;5.30;99.90
4725;DHT22;2376;53.544;10.226;2022-11-20T07:41:39;5.30;99.90
4725;DHT22;2376;53.544;10.226;2022-11-20T07:44:05;5.20;99.90
4725;DHT22;2376;53.544;10.226;2022-11-20T07:46:32;5.30;99.90
4725;DHT22;2376;53.544;10.226;2022-11-20T07:48:59;5.30;99.90
4725;DHT22;2376;53.544;10.226;2022-11-20T07:51:27;5.30;99.90
4725;DHT22;2376;53.544;10.226;2022-11-20T07:53:54;5.30;99.90
4725;DHT22;2376;53.544;10.226;2022-11-20T07:56:21;5.20;99.90
4725;DHT22;2376;53.544;10.226;2022-11-20T07:58:48;5.30;99.90
4725;DHT22;2376;53.544;10.226;2022-11-20T08:01:14;5.30;99.90
4725;DHT22;2376;53.544;10.226;2022-11-20T08:03:41;5.30;99.90
4725;DHT22;2376;53.544;10.226;2022-11-20T08:06:08;5.30;99.90
4725;DHT22;2376;53.544;10.226;2022-11-20T08:08:36;5.30;99.90
4725;DHT22;2376;53.544;10.226;2022-11-20T08:11:04;5.30;99.90
4725;DHT22;2376;53.544;10.226;2022-11-20T08:13:49;5.40;99.90
4725;DHT22;2376;53.544;10.226;2022-11-20T08:16:33;5.30;99.90
4725;DHT22;2376;53.544;10.226;2022-11-20T08:19:00;5.30;99.90
4725;DHT22;2376;53.544;10.226;2022-11-20T08:21:26;5.30;99.90
4725;DHT22;2376;53.544;10.226;2022-11-20T08:23:54;5.40;99.90
4725;DHT22;2376;53.544;10.226;2022-11-20T08:26:21;5.40;99.90
4725;DHT22;2376;53.544;10.226;2022-11-20T08:28:48;5.40;99.90
4725;DHT22;2376;53.544;10.226;2022-11-20T08:31:15;5.40;99.90
4725;DHT22;2376;53.544;10.226;2022-11-20T08:33:42;5.40;99.90
4725;DHT22;2376;53.544;10.226;2022-11-20T08:36:08;5.40;99.90
4725;DHT22;2376;53.544;10.226;2022-11-20T08:38:35;5.50;99.90
4725;DHT22;2376;53.544;10.226;2022-11-20T08:41:04;5.50;99.90
4725;DHT22;2376;53.544;10.226;2022-11-20T08:43:48;5.50;99.90
4725;DHT22;2376;53.544;10.226;2022-11-20T08:46:15;5.50;99.90
4725;DHT22;2376;53.544;10.226;2022-11-20T08:48:43;5.50;99.90
4725;DHT22;2376;53.544;10.226;2022-11-20T08:51:11;5.60;99.90
4725;DHT22;2376;53.544;10.226;2022-11-20T08:53:38;5.60;99.90
4725;DHT22;2376;53.544;10.226;2022-11-20T08:56:07;5.60;99.90
4725;DHT22;2376;53.544;10.226;2022-11-20T08:58:35;5.60;99.90
4725;DHT22;2376;53.544;10.226;2022-11-20T09:01:02;5.60;99.90
4725;DHT22;2376;53.544;10.226;2022-11-20T09:03:29;5.60;99.90
4725;DHT22;2376;53.544;10.226;2022-11-20T09:05:57;5.60;99.90
4725;DHT22;2376;53.544;10.226;2022-11-20T09:08:25;5.60;99.90
4725;DHT22;2376;53.544;10.226;2022-11-20T09:10:52;5.60;99.90
4725;DHT22;2376;53.544;10.226;2022-11-20T09:13:20;5.70;99.90
4725;DHT22;2376;53.544;10.226;2022-11-20T09:15:47;5.70;99.90
4725;DHT22;2376;53.544;10.226;2022-11-20T09:18:14;5.70;99.90
4725;DHT22;2376;53.544;10.226;2022-11-20T09:20:40;5.70;99.90
4725;DHT22;2376;53.544;10.226;2022-11-20T09:23:07;5.80;99.90
4725;DHT22;2376;53.544;10.226;2022-11-20T09:25:34;5.80;99.90
4725;DHT22;2376;53.544;10.226;2022-11-20T09:28:00;5.90;99.90
4725;DHT22;2376;53.544;10.226;2022-11-20T09:30:28;5.90;99.90
4725;DHT22;2376;53.544;10.226;2022-11-20T09:32:56;5.80;99.90
4725;DHT22;2376;53.544;10.226;2022-11-20T09:35:23;5.90;99.90
4725;DHT22;2376;53.544;10.226;2022-11-20T09:37:50;5.90;99.90
4725;DHT22;2376;53.544;10.226;2022-11-20T09:40:19;5.80;99.90
4725;DHT22;2376;53.544;10.226;2022-11-20T09:42:50;5.80;99.90
4725;DHT22;2376;53.544;10.226;2022-11-20T09:45:23;5.90;99.90
4725;DHT22;2376;53.544;10.226;2022-11-20T09:48:11;5.90;99.90
4725;DHT22;2376;53.544;10.226;2022-11-20T09:50:45;5.90;99.90
4725;DHT22;2376;53.544;10.226;2022-11-20T09:53:20;5.80;99.90
4725;DHT22;2376;53.544;10.226;2022-11-20T09:55:51;5.90;99.90
4725;DHT22;2376;53.544;10.226;2022-11-20T09:58:27;6.00;99.90
4725;DHT22;2376;53.544;10.226;2022-11-20T10:01:03;5.90;99.90
4725;DHT22;2376;53.544;10.226;2022-11-20T10:03:41;6.00;99.90
4725;DHT22;2376;53.544;10.226;2022-11-20T10:06:13;6.00;99.90
4725;DHT22;2376;53.544;10.226;2022-11-20T10:08:44;6.00;99.90
4725;DHT22;2376;53.544;10.226;2022-11-20T10:11:18;5.90;99.90
4725;DHT22;2376;53.544;10.226;2022-11-20T10:13:53;5.80;99.90
4725;DHT22;2376;53.544;10.226;2022-11-20T10:16:30;5.80;99.90
4725;DHT22;2376;53.544;10.226;2022-11-20T10:19:10;5.90;99.90
4725;DHT22;2376;53.544;10.226;2022-11-20T10:21:51;6.00;99.90
4725;DHT22;2376;53.544;10.226;2022-11-20T10:24:34;6.00;99.90
4725;DHT22;2376;53.544;10.226;2022-11-20T10:27:15;6.00;99.90
4725;DHT22;2376;53.544;10.226;2022-11-20T10:29:59;6.10;99.90
4725;DHT22;2376;53.544;10.226;2022-11-20T10:32:33;6.10;99.90
4725;DHT22;2376;53.544;10.226;2022-11-20T10:35:06;6.10;99.90
4725;DHT22;2376;53.544;10.226;2022-11-20T10:37:35;6.10;99.90
4725;DHT22;2376;53.544;10.226;2022-11-20T10:40:20;6.20;99.90
4725;DHT22;2376;53.544;10.226;2022-11-20T10:42:51;6.10;99.90
4725;DHT22;2376;53.544;10.226;2022-11-20T10:45:31;6.20;99.90
4725;DHT22;2376;53.544;10.226;2022-11-20T10:48:10;6.10;99.90
4725;DHT22;2376;53.544;10.226;2022-11-20T10:50:46;6.20;99.90
4725;DHT22;2376;53.544;10.226;2022-11-20T10:53:21;6.20;99.90
4725;DHT22;2376;53.544;10.226;2022-11-20T10:55:54;6.20;99.90
4725;DHT22;2376;53.544;10.226;2022-11-20T10:58:28;6.20;99.90
4725;DHT22;2376;53.544;10.226;2022-11-20T11:01:03;6.30;99.90
4725;DHT22;2376;53.544;10.226;2022-11-20T11:03:31;6.20;99.90
4725;DHT22;2376;53.544;10.226;2022-11-20T11:06:07;6.30;99.90
4725;DHT22;2376;53.544;10.226;2022-11-20T11:08:38;6.30;99.90
4725;DHT22;2376;53.544;10.226;2022-11-20T11:11:18;6.00;99.90
4725;DHT22;2376;53.544;10.226;2022-11-20T11:13:46;6.00;99.90
4725;DHT22;2376;53.544;10.226;2022-11-20T11:16:21;5.90;99.90
4725;DHT22;2376;53.544;10.226;2022-11-20T11:18:48;5.90;99.90
4725;DHT22;2376;53.544;10.226;2022-11-20T11:21:21;6.00;99.90
4725;DHT22;2376;53.544;10.226;2022-11-20T11:23:58;6.00;99.90
4725;DHT22;2376;53.544;10.226;2022-11-20T11:26:26;6.10;99.90
4725;DHT22;2376;53.544;10.226;2022-11-20T11:28:54;6.10;99.90
4725;DHT22;2376;53.544;10.226;2022-11-20T11:31:25;6.10;99.90
4725;DHT22;2376;53.544;10.226;2022-11-20T11:34:03;6.20;99.90
4725;DHT22;2376;53.544;10.226;2022-11-20T11:36:33;6.10;99.90
4725;DHT22;2376;53.544;10.226;2022-11-20T11:39:02;6.20;99.90
4725;DHT22;2376;53.544;10.226;2022-11-20T11:41:31;6.30;99.90
4725;DHT22;2376;53.544;10.226;2022-11-20T11:44:12;6.30;99.90
4725;DHT22;2376;53.544;10.226;2022-11-20T11:46:59;6.10;99.90
4725;DHT22;2376;53.544;10.226;2022-11-20T11:49:26;6.00;99.90
4725;DHT22;2376;53.544;10.226;2022-11-20T11:52:03;6.00;99.90
4725;DHT22;2376;53.544;10.226;2022-11-20T11:54:35;6.20;99.90
4725;DHT22;2376;53.544;10.226;2022-11-20T11:57:10;6.30;99.90
4725;DHT22;2376;53.544;10.226;2022-11-20T11:59:54;6.40;99.90
4725;DHT22;2376;53.544;10.226;2022-11-20T12:02:34;6.50;99.90
4725;DHT22;2376;53.544;10.226;2022-11-20T12:05:08;6.60;99.90
4725;DHT22;2376;53.544;10.226;2022-11-20T12:07:43;6.60;99.90
4725;DHT22;2376;53.544;10.226;2022-11-20T12:10:18;6.50;99.90
4725;DHT22;2376;53.544;10.226;2022-11-20T12:12:49;6.30;99.90
4725;DHT22;2376;53.544;10.226;2022-11-20T12:15:26;6.20;99.90
4725;DHT22;2376;53.544;10.226;2022-11-20T12:17:55;6.10;99.90
4725;DHT22;2376;53.544;10.226;2022-11-20T12:20:26;6.10;99.90
4725;DHT22;2376;53.544;10.226;2022-11-20T12:22:59;6.10;99.90
4725;DHT22;2376;53.544;10.226;2022-11-20T12:25:30;6.10;99.90
4725;DHT22;2376;53.544;10.226;2022-11-20T12:28:27;6.10;99.90
4725;DHT22;2376;53.544;10.226;2022-11-20T12:31:20;6.20;99.90
4725;DHT22;2376;53.544;10.226;2022-11-20T12:33:58;6.20;99.90
4725;DHT22;2376;53.544;10.226;2022-11-20T12:36:37;6.20;99.90
4725;DHT22;2376;53.544;10.226;2022-11-20T12:39:16;6.20;99.90
4725;DHT22;2376;53.544;10.226;2022-11-20T12:41:56;6.30;99.90
4725;DHT22;2376;53.544;10.226;2022-11-20T12:45:02;6.30;99.90
4725;DHT22;2376;53.544;10.226;2022-11-20T12:51:19;6.30;99.90
4725;DHT22;2376;53.544;10.226;2022-11-20T12:54:00;6.40;99.90
4725;DHT22;2376;53.544;10.226;2022-11-20T12:56:39;6.40;99.90
4725;DHT22;2376;53.544;10.226;2022-11-20T12:59:23;6.40;99.90
4725;DHT22;2376;53.544;10.226;2022-11-20T13:01:57;6.40;99.90
4725;DHT22;2376;53.544;10.226;2022-11-20T13:04:41;6.40;99.90
4725;DHT22;2376;53.544;10.226;2022-11-20T13:07:12;6.40;99.90
4725;DHT22;2376;53.544;10.226;2022-11-20T13:09:43;6.40;99.90
4725;DHT22;2376;53.544;10.226;2022-11-20T13:12:17;6.40;99.90
4725;DHT22;2376;53.544;10.226;2022-11-20T13:14:53;6.40;99.90
4725;DHT22;2376;53.544;10.226;2022-11-20T13:17:27;6.40;99.90
4725;DHT22;2376;53.544;10.226;2022-11-20T13:19:57;6.40;99.90
4725;DHT22;2376;53.544;10.226;2022-11-20T13:22:25;6.40;99.90
4725;DHT22;2376;53.544;10.226;2022-11-20T13:24:53;6.50;99.90
4725;DHT22;2376;53.544;10.226;2022-11-20T13:27:22;6.40;99.90
4725;DHT22;2376;53.544;10.226;2022-11-20T13:30:02;6.40;99.90
4725;DHT22;2376;53.544;10.226;2022-11-20T13:32:29;6.40;99.90
4725;DHT22;2376;53.544;10.226;2022-11-20T13:35:00;6.40;99.90
4725;DHT22;2376;53.544;10.226;2022-11-20T13:37:29;6.40;99.90
4725;DHT22;2376;53.544;10.226;2022-11-20T13:40:19;6.40;99.90
4725;DHT22;2376;53.544;10.226;2022-11-20T13:42:56;6.50;99.90
4725;DHT22;2376;53.544;10.226;2022-11-20T13:45:25;6.40;99.90
4725;DHT22;2376;53.544;10.226;2022-11-20T13:47:53;6.50;99.90
4725;DHT22;2376;53.544;10.226;2022-11-20T13:50:43;6.50;99.90
4725;DHT22;2376;53.544;10.226;2022-11-20T13:53:23;6.50;99.90
4725;DHT22;2376;53.544;10.226;2022-11-20T13:55:59;6.40;99.90
4725;DHT22;2376;53.544;10.226;2022-11-20T13:58:40;6.50;99.90
4725;DHT22;2376;53.544;10.226;2022-11-20T14:01:15;6.50;99.90
4725;DHT22;2376;53.544;10.226;2022-11-20T14:03:43;6.60;99.90
4725;DHT22;2376;53.544;10.226;2022-11-20T14:06:14;6.60;99.90
4725;DHT22;2376;53.544;10.226;2022-11-20T14:08:45;6.60;99.90
4725;DHT22;2376;53.544;10.226;2022-11-20T14:11:16;6.70;99.90
4725;DHT22;2376;53.544;10.226;2022-11-20T14:14:01;6.60;99.90
4725;DHT22;2376;53.544;10.226;2022-11-20T14:16:30;6.60;99.90
4725;DHT22;2376;53.544;10.226;2022-11-20T14:19:16;6.70;99.90
4725;DHT22;2376;53.544;10.226;2022-11-20T14:21:47;6.70;99.90
4725;DHT22;2376;53.544;10.226;2022-11-20T14:24:18;6.70;99.90
4725;DHT22;2376;53.544;10.226;2022-11-20T14:26:46;6.70;99.90
4725;DHT22;2376;53.544;10.226;2022-11-20T14:29:17;6.60;99.90
4725;DHT22;2376;53.544;10.226;2022-11-20T14:31:44;6.60;99.90
4725;DHT22;2376;53.544;10.226;2022-11-20T14:34:17;6.60;99.90
4725;DHT22;2376;53.544;10.226;2022-11-20T14:36:45;6.50;99.90
4725;DHT22;2376;53.544;10.226;2022-11-20T14:39:19;6.60;99.90
4725;DHT22;2376;53.544;10.226;2022-11-20T14:41:50;6.60;99.90
4725;DHT22;2376;53.544;10.226;2022-11-20T14:44:27;6.60;99.90
4725;DHT22;2376;53.544;10.226;2022-11-20T14:46:56;6.60;99.90
4725;DHT22;2376;53.544;10.226;2022-11-20T14:49:23;6.60;99.90
4725;DHT22;2376;53.544;10.226;2022-11-20T14:51:58;6.60;99.90
4725;DHT22;2376;53.544;10.226;2022-11-20T14:54:25;6.60;99.90
4725;DHT22;2376;53.544;10.226;2022-11-20T14:56:54;6.60;99.90
4725;DHT22;2376;53.544;10.226;2022-11-20T14:59:24;6.60;99.90
4725;DHT22;2376;53.544;10.226;2022-11-20T15:01:55;6.50;99.90
4725;DHT22;2376;53.544;10.226;2022-11-20T15:04:23;6.50;99.90
4725;DHT22;2376;53.544;10.226;2022-11-20T15:06:51;6.50;99.90
4725;DHT22;2376;53.544;10.226;2022-11-20T15:09:18;6.50;99.90
4725;DHT22;2376;53.544;10.226;2022-11-20T15:11:53;6.50;99.90
4725;DHT22;2376;53.544;10.226;2022-11-20T15:14:23;6.50;99.90
4725;DHT22;2376;53.544;10.226;2022-11-20T15:16:51;6.40;99.90
4725;DHT22;2376;53.544;10.226;2022-11-20T15:19:20;6.40;99.90
4725;DHT22;2376;53.544;10.226;2022-11-20T15:21:47;6.40;99.90
4725;DHT22;2376;53.544;10.226;2022-11-20T15:24:14;6.40;99.90
4725;DHT22;2376;53.544;10.226;2022-11-20T15:26:41;6.30;99.90
4725;DHT22;2376;53.544;10.226;2022-11-20T15:29:09;6.30;99.90
4725;DHT22;2376;53.544;10.226;2022-11-20T15:31:39;6.30;99.90
4725;DHT22;2376;53.544;10.226;2022-11-20T15:34:09;6.30;99.90
4725;DHT22;2376;53.544;10.226;2022-11-20T15:36:36;6.30;99.90
4725;DHT22;2376;53.544;10.226;2022-11-20T15:39:03;6.40;99.90
4725;DHT22;2376;53.544;10.226;2022-11-20T15:41:30;6.40;99.90
4725;DHT22;2376;53.544;10.226;2022-11-20T15:43:56;6.40;99.90
4725;DHT22;2376;53.544;10.226;2022-11-20T15:46:26;6.40;99.90
4725;DHT22;2376;53.544;10.226;2022-11-20T15:48:56;6.40;99.90
4725;DHT22;2376;53.544;10.226;2022-11-20T15:51:26;6.30;99.90
4725;DHT22;2376;53.544;10.226;2022-11-20T15:53:54;6.30;99.90
4725;DHT22;2376;53.544;10.226;2022-11-20T15:56:21;6.20;99.90
4725;DHT22;2376;53.544;10.226;2022-11-20T15:58:48;6.20;99.90
4725;DHT22;2376;53.544;10.226;2022-11-20T16:01:16;6.20;99.90
4725;DHT22;2376;53.544;10.226;2022-11-20T16:03:44;6.20;99.90
4725;DHT22;2376;53.544;10.226;2022-11-20T16:06:12;6.20;99.90
4725;DHT22;2376;53.544;10.226;2022-11-20T16:08:39;6.20;99.90
4725;DHT22;2376;53.544;10.226;2022-11-20T16:11:06;6.20;99.90
4725;DHT22;2376;53.544;10.226;2022-11-20T16:13:34;6.20;99.90
4725;DHT22;2376;53.544;10.226;2022-11-20T16:16:21;6.20;99.90
4725;DHT22;2376;53.544;10.226;2022-11-20T16:18:49;6.20;99.90
4725;DHT22;2376;53.544;10.226;2022-11-20T16:21:18;6.30;99.90
4725;DHT22;2376;53.544;10.226;2022-11-20T16:23:44;6.20;99.90